VA49 weather

Robertson Airport
Hanover, Virginia, United States

Public forecast

Using degrees Fahrenheit for public forecast. Weather courtesy of forecast.io.

Closest aviation weather report (METAR) to Robertson Airport

Closest report is Hanover County Municipal Airport, 3.1 nm (5.7 km) W. Retrieved 2019/12/16 09:54 UTC (7 minutes ago):

KOFP 160954Z AUTO VRB03KT 10SM CLR 04/M03 A3020 RMK AO2 SLP226 T00391028

Closest aviation forecast (TAF) to Robertson Airport

Closest forecast is Richmond International Airport, 12.3 nm (22.7 km) SSE. Retrieved 2019/12/16 06:22 UTC (4 hours ago):

TAF KRIC 160520Z 1606/1706 05004KT P6SM SCT100 FM161200 07004KT P6SM BKN040 FM161500 VRB03KT P6SM BKN030 FM161800 VRB05KT P6SM BKN040 FM170100 VRB03KT P6SM BKN060